Terminal Aerodrome Forecast
Issued by NWS

Home | Current Version | Previous Version | Text Only | Print | Product List | Glossary On
Versions: 1 2 3 4 5 6 7 8 9 10 11 12 13 14
000
FTUS46 KHNX 101739
TAFMCE
TAF
KMCE 101739Z 1018/1118 13006KT P6SM OVC030
     FM102100 14009KT 4SM -RA BR OVC025
     FM110300 13005KT 2SM RA BR OVC015
     FM110900 12003KT 4SM BR OVC015=

USA.gov is the U.S. government's official web portal to all federal, state and local government web resources and services.